Oelrichs, SD (57763)

12:09 AM MDT on August 29, 2015 (GMT -0600)
NonFedAWOS | | Change Station
CLOSE
Current Station
Personal Weather Station
Location: Hot Springs, SD
Elevation: 3147 ft
Nearby Weather Stations

Elev 3147 ft 43.37 °N, 103.39 °W | Updated 34 minutes ago

Clear
Clear
63 °F
Feels Like 63 °F
N
0
Wind Variable Wind from North
Gusts 0.0 mph

Today
High -- | Low -- °F
--% Chance of Precip.
Yesterday
High -- | Low -- °F
Precip. -- in
6:13 AM 7:33 PM
Full, 100% visible
Pressure 30.05 in
Visibility 6.0 miles
Clouds Clear
Dew Point 57 °F
Humidity 82%
Rainfall in
Snow Depth Not available.
UV 0 out of 12
Pollen 9.80 out of 12
Air Quality Not available.
Flu Activity Not available.
METAR KCDR 290553Z AUTO 00000KT 6SM HZ CLR 13/09 A3010 RMK AO2 SLP175 T01330089 10300 20133 51007
Pressure 30.05 in
Visibility 6.0 miles
Clouds Clear
Dew Point 57 °F
Humidity 82%
Rainfall in
Snow Depth Not available.
UV 0 out of 12
Pollen 9.80 out of 12
Air Quality Not available.
Flu Activity Not available.
METAR KCDR 290553Z AUTO 00000KT 6SM HZ CLR 13/09 A3010 RMK AO2 SLP175 T01330089 10300 20133 51007

10-Day Weather Forecast

×

Almanac

Astronomy

Aug. 29, 2015 Rise Set
Actual Time
Civil Twilight
Nautical Twilight
Astronomical Twilight
Moon
Length of Visible Light
Length of Day
Tomorrow will be .
, % of the Moon is Illuminated

Today's Extremes

State Highs State Lows

Community

WunderPhotos

Upload Photos

1,850,622 photos uploaded!

WunderBlogs® & News

Nearby

Air Quality

  Air Quality AQ Index Pollutant
Not available.

Snow Depth

Station Depth Elevation

Earthquake Activity

City Distance Mag. Time & Date
Minimum magnitude displayed is 2.5.

Coastal Water Temperatures

Place Temperature

Stations

Nearby Weather Stations

Station Location Temp. Windchill Dew Point Humidity Wind Precip. Elev Updated Type